Time;durP1;ratioP1;P1;durP2;ratioP2;P2;SDS_P1;SDS_P2;PMS_P1;PMS_P2;Temp;Humidity;BMP_temperature;BMP_pressure;BME280_temperature;BME280_humidity;BME280_pressure;Samples;Min_cycle;Max_cycle;Signal;HPM_P1;HPM_P2
2023/03/06 00:01:05;;;;;;;74.28;42.08;;;9.40;98.60;;;;;;5030523;28;20143;-78
2023/03/06 00:04:09;;;;;;;76.82;42.88;;;;;;;;;;5030455;28;20040;-79
2023/03/06 00:07:14;;;;;;;67.82;40.75;;;;;;;;;;5030253;28;20045;-78
2023/03/06 00:10:26;;;;;;;69.93;41.28;;;11.30;98.80;;;;;;5030555;28;20374;-78
2023/03/06 00:13:30;;;;;;;76.18;42.72;;;11.00;98.50;;;;;;5030593;28;20040;-78
2023/03/06 00:16:35;;;;;;;67.25;41.85;;;;;;;;;;5030777;28;20052;-78
2023/03/06 00:19:38;;;;;;;71.40;39.92;;;10.00;98.60;;;;;;5032846;28;20054;-78
2023/03/06 00:22:43;;;;;;;70.05;42.25;;;;;;;;;;5033195;28;20449;-78
2023/03/06 00:25:48;;;;;;;65.50;41.50;;;;;;;;;;5034079;28;20072;-78
2023/03/06 00:28:52;;;;;;;73.68;41.55;;;11.00;98.90;;;;;;5033996;28;20536;-78
2023/03/06 00:31:56;;;;;;;65.20;41.63;;;10.80;99.00;;;;;;5033847;28;20108;-78
2023/03/06 00:34:59;;;;;;;72.25;39.72;;;10.70;99.00;;;;;;5034173;28;20501;-77
2023/03/06 00:38:04;;;;;;;71.70;37.78;;;;;;;;;;5032729;28;20048;-78
2023/03/06 00:41:10;;;;;;;56.22;30.10;;;;;;;;;;5033035;28;20052;-78
2023/03/06 00:44:15;;;;;;;44.03;19.55;;;;;;;;;;5033653;28;20050;-78
2023/03/06 00:47:19;;;;;;;36.67;18.58;;;10.20;99.00;;;;;;5033171;28;20184;-78
2023/03/06 00:50:23;;;;;;;44.40;19.20;;;10.90;99.20;;;;;;5033315;28;20052;-78
2023/03/06 00:53:27;;;;;;;41.33;18.67;;;;;;;;;;5033393;28;20044;-78
2023/03/06 00:56:34;;;;;;;38.65;18.48;;;10.60;99.10;;;;;;5033320;28;20504;-78
2023/03/06 00:59:38;;;;;;;38.63;18.70;;;11.20;99.50;;;;;;5034547;28;20044;-79
2023/03/06 01:02:46;;;;;;;40.28;18.27;;;11.10;99.10;;;;;;5034302;28;20152;-78
2023/03/06 01:05:50;;;;;;;38.40;16.95;;;11.20;98.90;;;;;;5033894;28;20504;-78
2023/03/06 01:08:54;;;;;;;35.45;15.80;;;;;;;;;;5033954;28;20044;-78
2023/03/06 01:11:59;;;;;;;30.70;14.15;;;;;;;;;;5033314;28;20049;-78
2023/03/06 01:15:04;;;;;;;30.40;14.30;;;11.80;98.60;;;;;;5032242;28;20037;-78
2023/03/06 01:18:08;;;;;;;33.33;14.15;;;11.10;98.50;;;;;;5032262;28;20052;-76
2023/03/06 01:21:13;;;;;;;38.35;14.57;;;;;;;;;;5032092;28;20057;-77
2023/03/06 01:24:17;;;;;;;30.23;12.63;;;;;;;;;;5033087;28;20393;-77
2023/03/06 01:27:21;;;;;;;28.45;12.20;;;11.10;98.10;;;;;;5031745;28;20044;-78
2023/03/06 01:30:25;;;;;;;33.60;12.70;;;11.10;98.10;;;;;;5031313;28;20068;-77
2023/03/06 01:33:29;;;;;;;29.13;13.32;;;11.10;98.10;;;;;;5032818;28;20040;-78
2023/03/06 01:36:34;;;;;;;40.50;12.52;;;11.10;98.10;;;;;;5031448;28;20060;-78
2023/03/06 01:39:39;;;;;;;27.65;11.98;;;11.10;98.10;;;;;;5032415;28;20049;-77
2023/03/06 01:42:43;;;;;;;33.08;12.02;;;12.70;98.50;;;;;;5054771;28;20056;-77
2023/03/06 01:45:50;;;;;;;35.33;12.38;;;11.10;98.20;;;;;;5032327;28;20492;-78
2023/03/06 01:49:15;;;;;;;27.25;12.38;;;11.20;98.20;;;;;;5032740;28;20496;-79
2023/03/06 01:52:24;;;;;;;28.88;11.95;;;11.20;98.30;;;;;;5031757;28;20108;-77
2023/03/06 01:55:32;;;;;;;30.65;12.68;;;11.20;98.50;;;;;;5031319;28;20040;-78
2023/03/06 01:58:37;;;;;;;28.95;11.85;;;11.20;98.50;;;;;;5032251;28;20052;-77
2023/03/06 02:01:42;;;;;;;25.88;11.85;;;11.20;98.50;;;;;;5032407;28;20045;-79
2023/03/06 02:04:47;;;;;;;26.70;11.68;;;11.30;98.70;;;;;;5035382;28;20052;-78
2023/03/06 02:07:53;;;;;;;35.83;15.40;;;11.10;98.50;;;;;;5047796;28;20043;-78
2023/03/06 02:11:23;;;;;;;42.60;20.08;;;11.10;98.80;;;;;;5047984;28;20044;-78
2023/03/06 02:14:28;;;;;;;54.55;23.65;;;11.00;98.90;;;;;;5047521;28;20043;-79
2023/03/06 02:17:34;;;;;;;50.22;24.38;;;11.10;99.10;;;;;;5047071;28;20384;-78
2023/03/06 02:20:59;;;;;;;51.10;27.98;;;10.90;99.30;;;;;;5047850;28;20040;-78
2023/03/06 02:24:27;;;;;;;64.57;31.73;;;10.90;99.40;;;;;;5046883;28;20056;-78
2023/03/06 02:27:31;;;;;;;71.45;33.90;;;11.40;99.40;;;;;;5047150;28;20035;-77
2023/03/06 02:30:36;;;;;;;62.17;33.05;;;10.90;99.40;;;;;;5046880;28;20100;-78
2023/03/06 02:33:40;;;;;;;64.15;32.53;;;10.90;99.40;;;;;;5046892;28;20020;-78
2023/03/06 02:36:48;;;;;;;54.35;30.02;;;12.40;99.90;;;;;;5042731;28;20045;-78
2023/03/06 02:40:01;;;;;;;55.78;25.83;;;10.50;99.40;;;;;;5030762;28;20052;-78
2023/03/06 02:43:07;;;;;;;54.97;24.00;;;10.90;99.30;;;;;;5044609;28;20053;-77
2023/03/06 02:46:12;;;;;;;25.02;9.93;;;;;;;;;;5046782;28;20036;-77
2023/03/06 02:49:16;;;;;;;19.27;7.65;;;11.30;99.90;;;;;;5033368;28;20041;-77
2023/03/06 02:52:20;;;;;;;9.25;4.90;;;11.50;99.90;;;;;;5029968;28;20044;-78
2023/03/06 02:55:24;;;;;;;11.00;4.93;;;11.50;99.90;;;;;;5031034;28;20508;-76
2023/03/06 02:58:30;;;;;;;6.93;3.95;;;12.50;99.90;;;;;;5030602;28;20067;-77
2023/03/06 03:01:36;;;;;;;7.07;3.08;;;11.60;99.80;;;;;;5030868;28;20046;-78
2023/03/06 03:04:40;;;;;;;7.15;3.22;;;11.60;99.80;;;;;;5030224;28;20425;-79
2023/03/06 03:07:46;;;;;;;13.70;3.92;;;;;;;;;;5030050;28;20048;-77
2023/03/06 03:10:50;;;;;;;9.98;3.90;;;11.70;99.90;;;;;;5030432;28;20504;-79
2023/03/06 03:13:54;;;;;;;15.73;4.85;;;11.60;99.90;;;;;;5030231;28;20048;-78
2023/03/06 03:17:02;;;;;;;13.68;5.43;;;;;;;;;;5029855;28;20071;-78
2023/03/06 03:20:09;;;;;;;13.10;5.20;;;11.50;99.90;;;;;;5029898;28;20042;-76
2023/03/06 03:23:13;;;;;;;13.25;5.10;;;;;;;;;;5029631;28;20052;-77
2023/03/06 03:26:19;;;;;;;10.15;5.22;;;11.40;99.90;;;;;;5030995;28;20532;-77
2023/03/06 03:29:44;;;;;;;8.43;4.75;;;;;;;;;;5029948;28;20060;-77
2023/03/06 03:32:49;;;;;;;15.13;4.65;;;11.40;99.90;;;;;;5029580;28;20037;-78
2023/03/06 03:35:57;;;;;;;8.63;4.13;;;;;;;;;;5018253;28;20064;-77
2023/03/06 03:39:02;;;;;;;10.85;4.88;;;11.30;99.90;;;;;;5029419;28;20057;-78
2023/03/06 03:42:07;;;;;;;7.18;4.68;;;11.30;99.90;;;;;;5029588;28;20069;-78
2023/03/06 03:45:12;;;;;;;11.80;4.97;;;;;;;;;;5029868;28;20045;-78
2023/03/06 03:48:17;;;;;;;11.73;5.00;;;11.40;99.90;;;;;;5030416;28;20061;-79
2023/03/06 03:51:21;;;;;;;9.75;5.38;;;11.30;99.90;;;;;;5029836;28;20048;-78
2023/03/06 03:54:30;;;;;;;12.45;6.15;;;11.00;99.90;;;;;;5031549;28;20393;-78
2023/03/06 03:57:34;;;;;;;8.77;6.28;;;;;;;;;;5034114;28;20052;-78
2023/03/06 04:00:39;;;;;;;12.10;7.05;;;12.90;99.90;;;;;;5033184;28;20041;-78
2023/03/06 04:03:48;;;;;;;15.20;7.68;;;11.20;99.90;;;;;;5033590;28;20520;-78
2023/03/06 04:06:53;;;;;;;13.13;8.25;;;11.20;99.90;;;;;;5032976;28;20453;-78
2023/03/06 04:09:57;;;;;;;14.57;8.75;;;11.20;99.90;;;;;;5033951;28;20203;-77
2023/03/06 04:13:03;;;;;;;15.35;8.82;;;11.20;99.90;;;;;;5032957;28;20042;-77
2023/03/06 04:16:07;;;;;;;19.70;9.15;;;11.10;99.90;;;;;;5032955;28;20089;-77
2023/03/06 04:19:14;;;;;;;18.05;9.30;;;11.20;99.90;;;;;;5033121;28;20048;-77
2023/03/06 04:22:19;;;;;;;14.10;7.72;;;;;;;;;;5032684;28;20057;-77
2023/03/06 04:25:24;;;;;;;14.57;8.00;;;11.10;99.90;;;;;;5033447;28;20508;-76
2023/03/06 04:28:29;;;;;;;15.10;8.13;;;;;;;;;;5032686;28;20040;-76
2023/03/06 04:31:35;;;;;;;10.80;7.07;;;;;;;;;;5032746;28;20638;-77
2023/03/06 04:34:40;;;;;;;17.58;7.80;;;12.10;99.90;;;;;;5032563;28;20041;-77
2023/03/06 04:37:44;;;;;;;12.98;7.45;;;10.50;99.90;;;;;;5032325;28;20052;-77
2023/03/06 04:40:48;;;;;;;15.27;8.00;;;10.60;99.90;;;;;;5032518;28;20523;-78
2023/03/06 04:43:53;;;;;;;12.98;6.93;;;10.70;99.90;;;;;;5033199;28;20056;-77
2023/03/06 04:46:57;;;;;;;19.30;6.78;;;10.70;99.90;;;;;;5033006;28;20037;-79
2023/03/06 04:50:02;;;;;;;14.25;7.32;;;10.60;99.90;;;;;;5032189;28;20048;-77
2023/03/06 04:53:07;;;;;;;11.38;6.75;;;12.20;99.90;;;;;;5033091;28;20037;-76
2023/03/06 04:56:11;;;;;;;17.13;7.88;;;10.70;99.90;;;;;;5033067;28;20044;-76
2023/03/06 04:59:15;;;;;;;15.73;7.55;;;;;;;;;;5032821;28;20044;-77
2023/03/06 05:02:20;;;;;;;14.10;7.53;;;10.70;99.90;;;;;;5033186;28;20048;-77
2023/03/06 05:05:24;;;;;;;16.00;7.97;;;10.60;99.90;;;;;;5032499;28;20398;-76
2023/03/06 05:08:27;;;;;;;15.65;8.57;;;10.50;99.90;;;;;;5032964;28;20491;-77
2023/03/06 05:11:31;;;;;;;14.80;8.40;;;10.60;99.90;;;;;;5033109;28;20044;-77
2023/03/06 05:14:36;;;;;;;13.65;8.52;;;10.30;99.90;;;;;;5032761;28;20048;-77
2023/03/06 05:17:40;;;;;;;16.77;9.10;;;10.60;99.90;;;;;;5032572;28;20048;-77
2023/03/06 05:20:44;;;;;;;13.13;7.47;;;10.70;99.90;;;;;;5032531;28;20040;-77
2023/03/06 05:23:48;;;;;;;20.05;8.95;;;10.30;99.90;;;;;;5032563;28;20555;-77
2023/03/06 05:26:52;;;;;;;11.80;7.50;;;12.00;99.90;;;;;;5032571;28;20493;-77
2023/03/06 05:29:57;;;;;;;16.15;9.30;;;10.30;99.90;;;;;;5032563;28;20484;-77
2023/03/06 05:33:01;;;;;;;18.75;9.60;;;10.40;99.90;;;;;;5032411;28;20048;-77
2023/03/06 05:36:07;;;;;;;13.98;8.18;;;10.30;99.90;;;;;;5032138;28;20175;-77
2023/03/06 05:39:12;;;;;;;17.48;9.07;;;9.90;99.90;;;;;;5031956;28;20064;-78
2023/03/06 05:42:17;;;;;;;16.77;9.27;;;10.30;99.90;;;;;;5031244;28;20056;-76
2023/03/06 05:45:21;;;;;;;17.42;8.93;;;10.10;99.90;;;;;;5031887;28;20040;-77
2023/03/06 05:48:25;;;;;;;13.52;8.18;;;10.60;99.90;;;;;;5032299;28;20052;-78
2023/03/06 05:51:29;;;;;;;17.55;8.98;;;10.50;99.90;;;;;;5031381;28;20036;-78
2023/03/06 05:54:35;;;;;;;14.40;8.75;;;10.50;99.90;;;;;;5032074;28;20045;-77
2023/03/06 05:57:38;;;;;;;20.02;9.70;;;10.70;99.90;;;;;;5031772;28;20683;-77
2023/03/06 06:00:42;;;;;;;19.30;10.40;;;10.70;99.90;;;;;;5032008;28;20036;-77
2023/03/06 06:03:47;;;;;;;18.42;10.70;;;10.50;99.90;;;;;;5031864;28;20048;-77
2023/03/06 06:06:55;;;;;;;21.10;11.43;;;;;;;;;;5031887;28;20045;-77
2023/03/06 06:09:59;;;;;;;15.52;10.40;;;10.50;99.90;;;;;;5031662;28;20397;-76
2023/03/06 06:13:03;;;;;;;21.52;10.45;;;10.40;99.90;;;;;;5031859;28;20105;-76
2023/03/06 06:16:16;;;;;;;18.50;10.10;;;9.60;99.90;;;;;;5030919;28;20056;-78
2023/03/06 06:19:20;;;;;;;19.35;10.45;;;10.20;99.90;;;;;;5031352;28;20040;-76
2023/03/06 06:22:24;;;;;;;17.98;10.43;;;10.50;99.90;;;;;;5031133;28;20060;-77
2023/03/06 06:25:28;;;;;;;18.67;10.98;;;10.70;99.90;;;;;;5030220;28;20048;-75
2023/03/06 06:28:33;;;;;;;17.92;10.18;;;;;;;;;;5031159;28;20038;-70
2023/03/06 06:31:37;;;;;;;21.73;10.63;;;;;;;;;;5030467;28;20048;-70
2023/03/06 06:34:41;;;;;;;22.58;12.00;;;10.70;99.90;;;;;;5031330;28;20045;-70
2023/03/06 06:37:46;;;;;;;22.25;11.65;;;;;;;;;;5030956;28;20040;-68
2023/03/06 06:40:50;;;;;;;20.80;11.27;;;10.90;99.90;;;;;;5030852;28;20048;-68
2023/03/06 06:43:54;;;;;;;18.73;11.18;;;11.30;99.90;;;;;;5030781;28;20052;-69
2023/03/06 06:46:58;;;;;;;20.73;10.82;;;11.70;99.90;;;;;;5030716;28;20037;-69
2023/03/06 06:50:03;;;;;;;16.42;10.45;;;12.00;99.90;;;;;;5030846;28;20049;-69
2023/03/06 06:53:07;;;;;;;14.23;9.82;;;;;;;;;;5030823;28;20040;-70
2023/03/06 06:56:11;;;;;;;17.38;11.18;;;;;;;;;;5030771;28;20042;-70
2023/03/06 06:59:16;;;;;;;15.63;10.25;;;;;;;;;;5030893;28;20044;-69
2023/03/06 07:02:20;;;;;;;17.30;9.85;;;12.30;99.90;;;;;;5030773;28;20053;-70
2023/03/06 07:05:24;;;;;;;16.75;11.23;;;;;;;;;;5030533;28;20147;-69
2023/03/06 07:08:29;;;;;;;17.30;11.20;;;12.20;99.90;;;;;;5030681;28;20057;-70
2023/03/06 07:11:33;;;;;;;16.58;10.63;;;;;;;;;;5030839;28;20044;-69
2023/03/06 07:14:40;;;;;;;17.17;10.77;;;;;;;;;;5030752;28;20052;-70
2023/03/06 07:17:44;;;;;;;15.05;10.00;;;;;;;;;;5030880;28;20068;-69
2023/03/06 07:20:48;;;;;;;20.27;11.43;;;13.20;99.90;;;;;;5030753;28;20040;-69
2023/03/06 07:23:53;;;;;;;19.65;10.02;;;13.40;99.90;;;;;;5030420;28;20052;-70
2023/03/06 07:26:57;;;;;;;17.95;10.40;;;14.20;99.90;;;;;;5030530;28;20041;-69
2023/03/06 07:30:01;;;;;;;23.25;10.50;;;14.20;99.90;;;;;;5032654;28;20040;-68
2023/03/06 07:33:05;;;;;;;17.23;10.52;;;14.40;99.90;;;;;;5034300;28;20052;-70
2023/03/06 07:36:09;;;;;;;15.15;10.60;;;14.40;99.30;;;;;;5034346;28;20044;-69
2023/03/06 07:39:13;;;;;;;15.80;9.63;;;14.40;99.20;;;;;;5033203;28;20053;-68
2023/03/06 07:42:17;;;;;;;20.38;10.85;;;14.40;99.60;;;;;;5034587;28;20048;-69
2023/03/06 07:45:32;;;;;;;18.50;11.20;;;14.50;99.80;;;;;;5033789;28;20048;-67
2023/03/06 07:48:37;;;;;;;16.60;10.05;;;14.70;99.40;;;;;;5034469;28;20666;-69
2023/03/06 07:51:41;;;;;;;22.90;10.82;;;15.00;98.60;;;;;;5034244;28;20048;-68
2023/03/06 07:54:45;;;;;;;15.38;10.43;;;14.90;98.40;;;;;;5033914;28;20536;-68
2023/03/06 07:57:50;;;;;;;13.68;9.10;;;15.10;98.40;;;;;;5034354;28;20052;-70
2023/03/06 08:00:54;;;;;;;16.02;10.15;;;15.10;98.60;;;;;;5033346;28;20052;-69
2023/03/06 08:04:00;;;;;;;17.52;10.20;;;15.20;98.20;;;;;;5034042;28;20072;-69
2023/03/06 08:07:04;;;;;;;30.35;11.55;;;15.20;97.90;;;;;;5033887;28;20480;-70
2023/03/06 08:10:11;;;;;;;18.42;9.57;;;15.20;98.10;;;;;;5034054;28;20060;-70
2023/03/06 08:13:15;;;;;;;15.90;10.63;;;15.20;98.00;;;;;;5033272;28;20045;-69
2023/03/06 08:16:25;;;;;;;25.80;10.57;;;15.40;97.90;;;;;;5033605;28;20492;-69
2023/03/06 08:19:29;;;;;;;18.98;10.10;;;15.40;98.00;;;;;;5033986;28;20048;-69
2023/03/06 08:22:34;;;;;;;22.33;10.18;;;15.50;97.30;;;;;;5033464;28;20072;-70
2023/03/06 08:25:38;;;;;;;19.60;10.43;;;15.50;97.30;;;;;;5033648;28;20424;-68
2023/03/06 08:28:42;;;;;;;23.92;11.13;;;15.40;97.00;;;;;;5033474;28;20056;-67
2023/03/06 08:31:47;;;;;;;23.80;9.52;;;15.30;96.80;;;;;;5033718;28;20393;-69
2023/03/06 08:34:51;;;;;;;22.58;8.98;;;15.10;96.90;;;;;;5033410;28;20044;-68
2023/03/06 08:37:55;;;;;;;16.80;9.27;;;15.00;97.00;;;;;;5033366;28;20052;-69
2023/03/06 08:40:59;;;;;;;24.63;8.77;;;14.80;96.70;;;;;;5032982;28;20044;-68
2023/03/06 08:44:04;;;;;;;17.45;7.68;;;14.80;96.80;;;;;;5033762;28;20401;-68
2023/03/06 08:47:08;;;;;;;23.00;8.65;;;14.80;96.80;;;;;;5033766;28;20048;-67
2023/03/06 08:50:13;;;;;;;24.60;9.80;;;14.90;96.60;;;;;;5033321;28;20052;-66
2023/03/06 08:53:17;;;;;;;21.25;9.27;;;15.00;96.40;;;;;;5033346;28;20064;-67
2023/03/06 08:56:27;;;;;;;17.58;8.00;;;15.10;96.40;;;;;;5033582;28;20413;-65
2023/03/06 08:59:31;;;;;;;22.92;9.27;;;15.10;96.50;;;;;;5033441;28;20053;-68
2023/03/06 09:02:35;;;;;;;15.70;7.60;;;15.20;96.40;;;;;;5033353;28;20048;-66
2023/03/06 09:05:40;;;;;;;15.60;7.97;;;15.20;95.80;;;;;;5033125;28;20402;-68
2023/03/06 09:08:44;;;;;;;25.40;7.90;;;15.20;95.10;;;;;;5033387;28;20589;-72
2023/03/06 09:11:50;;;;;;;20.10;8.30;;;15.20;95.30;;;;;;5033031;28;20064;-69
2023/03/06 09:14:54;;;;;;;13.90;7.85;;;15.20;95.40;;;;;;5032374;28;20505;-69
2023/03/06 09:17:57;;;;;;;18.65;8.25;;;15.10;95.60;;;;;;5031517;28;20124;-69
2023/03/06 09:21:03;;;;;;;22.83;8.45;;;15.10;95.60;;;;;;5032318;28;20040;-68
2023/03/06 09:24:07;;;;;;;15.32;7.00;;;15.10;95.80;;;;;;5032044;28;20056;-68
2023/03/06 09:27:11;;;;;;;19.25;7.43;;;15.20;95.90;;;;;;5032421;28;20048;-69
2023/03/06 09:30:17;;;;;;;22.98;8.00;;;15.10;95.60;;;;;;5032201;28;20056;-68
2023/03/06 09:33:22;;;;;;;24.30;8.32;;;15.10;95.80;;;;;;5031317;28;20044;-69
2023/03/06 09:36:26;;;;;;;15.35;7.55;;;15.10;96.00;;;;;;5032402;28;20037;-69
2023/03/06 09:39:30;;;;;;;13.38;7.03;;;15.10;95.80;;;;;;5031886;28;20053;-68
2023/03/06 09:42:34;;;;;;;14.45;6.60;;;15.10;95.80;;;;;;5031942;28;20060;-68
2023/03/06 09:45:38;;;;;;;24.40;6.88;;;15.10;95.70;;;;;;5031875;28;20040;-73
2023/03/06 09:48:57;;;;;;;23.02;7.53;;;15.00;94.90;;;;;;5032266;28;20045;-69
2023/03/06 09:52:28;;;;;;;18.40;6.20;;;15.00;95.10;;;;;;5030910;28;20045;-68
2023/03/06 09:55:37;;;;;;;11.47;5.47;;;14.80;93.90;;;;;;5032017;28;20496;-69
2023/03/06 09:58:46;;;;;;;11.07;4.53;;;14.80;94.10;;;;;;5031615;28;20389;-68
2023/03/06 10:02:10;;;;;;;7.28;4.07;;;14.60;94.20;;;;;;5031573;28;20401;-69
2023/03/06 10:05:31;;;;;;;6.35;3.42;;;14.40;93.30;;;;;;5031162;28;20056;-69
2023/03/06 10:08:41;;;;;;;11.68;4.20;;;14.40;94.10;;;;;;5031534;28;20044;-68
2023/03/06 10:11:55;;;;;;;7.47;3.70;;;14.20;94.00;;;;;;5031069;28;20508;-68
2023/03/06 10:15:15;;;;;;;13.65;7.65;;;14.00;94.10;;;;;;5031524;28;20040;-67
2023/03/06 10:18:19;;;;;;;35.95;20.98;;;14.30;94.80;;;;;;5031453;28;20052;-65
2023/03/06 10:21:45;;;;;;;15.77;8.15;;;17.40;95.80;;;;;;5030766;28;20044;-66
2023/03/06 10:25:26;;;;;;;10.30;4.85;;;14.80;95.10;;;;;;5031531;28;20057;-65
2023/03/06 10:29:11;;;;;;;8.63;5.05;;;15.10;94.70;;;;;;5031296;28;20041;-65
2023/03/06 10:32:38;;;;;;;11.82;4.90;;;15.20;94.60;;;;;;5031186;28;20040;-67
2023/03/06 10:35:51;;;;;;;11.05;7.35;;;15.50;94.00;;;;;;5031310;28;20354;-68
2023/03/06 10:38:57;;;;;;;10.55;5.95;;;15.70;93.60;;;;;;5030972;28;20065;-67
2023/03/06 10:42:01;;;;;;;11.35;6.40;;;15.60;93.00;;;;;;5030961;28;20171;-65
2023/03/06 10:45:08;;;;;;;22.08;11.02;;;15.40;93.10;;;;;;5030966;28;20056;-67
2023/03/06 10:48:22;;;;;;;15.43;6.82;;;15.40;93.30;;;;;;5030736;28;20045;-68
2023/03/06 10:51:26;;;;;;;13.48;5.95;;;15.30;93.30;;;;;;5031099;28;20048;-67
2023/03/06 10:54:36;;;;;;;12.13;6.25;;;15.00;95.20;;;;;;5030918;28;20044;-68
2023/03/06 10:57:40;;;;;;;11.85;5.10;;;14.90;95.80;;;;;;5030836;28;20058;-68
2023/03/06 11:00:45;;;;;;;9.40;4.32;;;14.60;95.80;;;;;;5029467;28;20088;-68
2023/03/06 11:03:49;;;;;;;14.68;5.28;;;14.40;96.60;;;;;;5030328;28;20072;-67
2023/03/06 11:07:09;;;;;;;12.25;5.43;;;14.30;97.00;;;;;;5030095;28;20037;-67
2023/03/06 11:10:18;;;;;;;18.63;5.63;;;15.40;97.50;;;;;;5030412;28;20044;-69
2023/03/06 11:13:25;;;;;;;12.70;5.03;;;12.00;96.60;;;;;;5030844;28;20033;-67
2023/03/06 11:16:29;;;;;;;10.88;5.07;;;14.00;97.20;;;;;;5030438;28;20049;-69
2023/03/06 11:19:33;;;;;;;12.32;5.35;;;13.90;97.40;;;;;;5030269;28;20048;-68
2023/03/06 11:22:39;;;;;;;13.95;6.18;;;14.40;97.40;;;;;;5028517;28;20053;-68
2023/03/06 11:25:53;;;;;;;14.48;5.43;;;14.10;97.60;;;;;;5028542;28;20052;-68
2023/03/06 11:29:22;;;;;;;14.25;6.18;;;14.30;97.70;;;;;;5029102;28;20044;-67
2023/03/06 11:32:34;;;;;;;12.35;5.65;;;14.10;97.80;;;;;;5029754;28;20052;-68
2023/03/06 11:36:07;;;;;;;10.90;4.93;;;14.60;98.00;;;;;;5030515;28;20049;-67
2023/03/06 11:39:26;;;;;;;13.07;5.00;;;14.20;97.70;;;;;;5029357;28;20056;-68
2023/03/06 11:42:48;;;;;;;17.90;5.80;;;14.10;97.80;;;;;;5030317;28;20044;-67
2023/03/06 11:45:58;;;;;;;14.48;5.35;;;14.70;98.20;;;;;;5030006;28;20715;-69
2023/03/06 11:49:27;;;;;;;38.58;8.25;;;14.10;98.20;;;;;;5029609;28;20044;-70
2023/03/06 11:52:56;;;;;;;15.05;6.53;;;16.40;99.10;;;;;;5029839;28;20048;-69
2023/03/06 11:56:06;;;;;;;22.10;6.88;;;14.10;98.30;;;;;;5030248;28;20390;-69
2023/03/06 11:59:35;;;;;;;24.58;6.53;;;14.30;97.80;;;;;;5029260;28;20033;-66
2023/03/06 12:03:08;;;;;;;12.77;5.53;;;14.60;98.00;;;;;;5030519;28;20397;-68
2023/03/06 12:06:31;;;;;;;20.27;6.30;;;14.80;97.20;;;;;;5029998;28;20405;-68
2023/03/06 12:09:36;;;;;;;16.67;5.65;;;15.00;96.70;;;;;;5030194;28;20052;-68
2023/03/06 12:13:00;;;;;;;9.63;4.90;;;15.10;96.60;;;;;;5029919;28;20504;-68
2023/03/06 12:16:39;;;;;;;14.35;5.60;;;15.20;96.60;;;;;;5033043;28;20048;-69
2023/03/06 12:20:06;;;;;;;7.97;4.75;;;15.40;96.10;;;;;;5034005;28;20063;-69
2023/03/06 12:23:29;;;;;;;9.63;5.40;;;15.70;94.70;;;;;;5033349;28;20576;-68
2023/03/06 12:26:52;;;;;;;25.50;6.45;;;15.80;94.80;;;;;;5030774;28;20044;-69
2023/03/06 12:30:32;;;;;;;16.50;5.70;;;15.90;94.40;;;;;;5032156;28;20152;-68
2023/03/06 12:33:57;;;;;;;9.35;6.68;;;16.10;94.00;;;;;;5032375;28;20305;-68
2023/03/06 12:37:25;;;;;;;12.60;4.82;;;16.10;94.10;;;;;;5032464;28;20045;-69
2023/03/06 12:40:35;;;;;;;11.68;5.50;;;16.20;92.40;;;;;;5032408;28;20076;-69
2023/03/06 12:44:04;;;;;;;18.33;5.68;;;16.20;92.60;;;;;;5033289;28;20050;-69
2023/03/06 12:47:13;;;;;;;10.93;4.47;;;16.20;92.80;;;;;;5033033;28;20052;-68
2023/03/06 12:50:30;;;;;;;12.75;5.35;;;16.20;92.90;;;;;;5032898;28;20514;-69
2023/03/06 12:53:36;;;;;;;24.00;5.70;;;16.10;92.40;;;;;;5032937;28;20045;-69
2023/03/06 12:56:42;;;;;;;11.15;3.70;;;16.00;92.40;;;;;;5032941;28;20041;-69
2023/03/06 12:59:48;;;;;;;10.57;4.35;;;16.00;92.60;;;;;;5033200;28;20045;-70
2023/03/06 13:03:13;;;;;;;8.38;4.15;;;16.00;93.10;;;;;;5033013;28;20041;-69
2023/03/06 13:06:36;;;;;;;13.68;4.63;;;16.00;93.70;;;;;;5032856;28;20045;-70
2023/03/06 13:10:08;;;;;;;16.25;4.45;;;16.10;93.80;;;;;;5032916;28;20052;-69
2023/03/06 13:13:33;;;;;;;7.95;3.95;;;16.10;93.60;;;;;;5032978;28;20052;-68
2023/03/06 13:16:37;;;;;;;13.43;4.82;;;16.30;93.80;;;;;;5032815;28;20405;-70
2023/03/06 13:19:41;;;;;;;10.93;4.68;;;16.30;93.00;;;;;;5032641;28;20048;-69
2023/03/06 13:22:46;;;;;;;12.40;4.90;;;16.30;92.70;;;;;;5032671;28;20056;-69
2023/03/06 13:25:50;;;;;;;12.55;4.63;;;16.30;92.40;;;;;;5031563;28;20236;-70
2023/03/06 13:28:56;;;;;;;10.57;4.43;;;16.30;92.40;;;;;;5032669;28;20040;-72
2023/03/06 13:32:01;;;;;;;10.55;4.30;;;16.30;92.00;;;;;;5032698;28;20048;-70
2023/03/06 13:35:31;;;;;;;11.70;4.05;;;16.30;92.10;;;;;;5032557;28;20049;-68
2023/03/06 13:38:36;;;;;;;10.10;3.53;;;16.30;92.20;;;;;;5032217;28;20052;-69
2023/03/06 13:41:41;;;;;;;11.45;4.07;;;16.30;92.10;;;;;;5032408;28;20045;-68
2023/03/06 13:44:49;;;;;;;10.63;3.97;;;16.30;91.90;;;;;;5031967;28;20112;-69
2023/03/06 13:47:59;;;;;;;13.23;3.67;;;16.30;91.80;;;;;;5032151;28;20036;-70
2023/03/06 13:51:22;;;;;;;11.65;3.78;;;16.30;91.80;;;;;;5032311;28;20147;-67
2023/03/06 13:55:00;;;;;;;8.30;3.35;;;16.30;91.60;;;;;;5031827;28;20041;-67
2023/03/06 13:58:16;;;;;;;12.88;4.40;;;16.30;91.40;;;;;;5031810;28;20589;-67
2023/03/06 14:01:38;;;;;;;14.23;3.45;;;16.30;91.20;;;;;;5031781;28;20093;-69
2023/03/06 14:04:56;;;;;;;8.85;3.13;;;16.20;90.70;;;;;;5031393;28;20053;-68
2023/03/06 14:08:10;;;;;;;11.93;3.55;;;16.20;90.50;;;;;;5031594;28;20497;-69
2023/03/06 14:11:20;;;;;;;10.93;3.30;;;16.10;90.80;;;;;;5031419;28;20044;-71
2023/03/06 14:14:38;;;;;;;10.63;3.10;;;16.00;91.10;;;;;;5031187;28;20041;-70
2023/03/06 14:18:06;;;;;;;10.80;3.22;;;16.00;91.60;;;;;;5031471;28;20052;-71
2023/03/06 14:21:12;;;;;;;7.75;2.80;;;16.00;91.20;;;;;;5031253;28;20381;-67
2023/03/06 14:24:18;;;;;;;10.20;2.90;;;16.00;91.40;;;;;;5031029;28;20060;-67
2023/03/06 14:27:47;;;;;;;9.35;3.65;;;15.90;90.70;;;;;;5031110;28;20049;-69
2023/03/06 14:30:52;;;;;;;16.02;9.60;;;15.90;91.20;;;;;;5030898;28;20056;-70
2023/03/06 14:34:06;;;;;;;15.38;4.43;;;15.80;91.80;;;;;;5030972;28;20036;-67
2023/03/06 14:37:24;;;;;;;17.90;4.60;;;15.80;92.30;;;;;;5030681;28;20397;-70
2023/03/06 14:40:34;;;;;;;13.02;4.28;;;15.80;92.60;;;;;;5030850;28;20504;-67
2023/03/06 14:43:38;;;;;;;7.83;3.53;;;15.70;92.70;;;;;;5030887;28;20052;-68
2023/03/06 14:46:48;;;;;;;9.68;3.55;;;15.70;92.60;;;;;;5030745;28;20041;-69
2023/03/06 14:50:21;;;;;;;11.25;3.08;;;15.60;92.70;;;;;;5030632;28;20393;-70
2023/03/06 14:53:32;;;;;;;13.13;2.95;;;15.70;92.90;;;;;;5030914;28;20052;-69
2023/03/06 14:56:44;;;;;;;12.65;3.15;;;15.60;93.10;;;;;;5029833;28;20056;-68
2023/03/06 14:59:55;;;;;;;13.65;3.47;;;15.70;92.40;;;;;;5030481;28;20042;-68
2023/03/06 15:02:59;;;;;;;12.77;3.30;;;15.60;92.60;;;;;;5030388;28;20044;-70
2023/03/06 15:06:04;;;;;;;17.63;4.18;;;15.60;92.60;;;;;;5030631;28;20049;-68
2023/03/06 15:09:19;;;;;;;20.67;4.32;;;15.60;92.30;;;;;;5028822;28;20037;-69
2023/03/06 15:12:23;;;;;;;13.43;3.08;;;15.50;92.30;;;;;;5030925;28;20346;-70
2023/03/06 15:15:31;;;;;;;12.95;3.53;;;15.50;92.60;;;;;;5028560;28;20393;-69
2023/03/06 15:18:39;;;;;;;9.88;4.00;;;15.40;92.00;;;;;;5029046;28;20046;-69
2023/03/06 15:21:50;;;;;;;11.88;2.70;;;15.40;92.30;;;;;;5030376;28;20045;-68
2023/03/06 15:25:17;;;;;;;10.48;3.40;;;15.40;92.10;;;;;;5030251;28;20064;-67
2023/03/06 15:28:34;;;;;;;9.55;3.10;;;15.30;92.20;;;;;;5030022;28;20044;-68
2023/03/06 15:31:41;;;;;;;14.82;2.20;;;15.20;91.20;;;;;;5029778;28;20045;-68
2023/03/06 15:34:45;;;;;;;11.98;2.97;;;14.30;91.20;;;;;;5030549;28;20040;-67
2023/03/06 15:37:49;;;;;;;12.43;2.92;;;15.20;90.90;;;;;;5030634;28;20045;-69
2023/03/06 15:40:57;;;;;;;19.25;3.92;;;15.20;91.10;;;;;;5030502;28;20049;-70
2023/03/06 15:44:07;;;;;;;11.90;3.45;;;15.10;91.40;;;;;;5029172;28;20405;-66
2023/03/06 15:47:11;;;;;;;15.45;3.45;;;15.00;91.40;;;;;;5030415;28;20081;-68
2023/03/06 15:50:25;;;;;;;9.68;2.67;;;15.10;91.40;;;;;;5031984;28;20557;-67
2023/03/06 15:53:29;;;;;;;14.82;2.53;;;15.10;91.60;;;;;;5033230;28;20508;-67
2023/03/06 15:56:37;;;;;;;6.47;2.22;;;15.00;91.70;;;;;;5032957;28;20053;-66
2023/03/06 15:59:43;;;;;;;9.80;2.83;;;15.10;91.70;;;;;;5034012;28;20056;-66
2023/03/06 16:02:47;;;;;;;12.73;3.95;;;15.00;91.60;;;;;;5034090;28;20044;-68
2023/03/06 16:05:51;;;;;;;12.93;3.33;;;15.00;91.40;;;;;;5033972;28;20068;-69
2023/03/06 16:08:55;;;;;;;14.77;3.15;;;15.00;91.70;;;;;;5034287;28;20056;-68
2023/03/06 16:11:59;;;;;;;13.30;3.72;;;14.90;92.00;;;;;;5032882;28;20365;-69
2023/03/06 16:15:09;;;;;;;8.98;3.83;;;16.90;92.50;;;;;;5033695;28;20543;-67
2023/03/06 16:18:14;;;;;;;16.00;5.05;;;16.40;92.30;;;;;;5033071;28;20064;-67
2023/03/06 16:21:18;;;;;;;15.48;4.18;;;14.10;91.80;;;;;;5031457;28;20041;-69